Time;durP1;ratioP1;P1;durP2;ratioP2;P2;SDS_P1;SDS_P2;PMS_P1;PMS_P2;Temp;Humidity;BMP_temperature;BMP_pressure;BME280_temperature;BME280_humidity;BME280_pressure;Samples;Min_cycle;Max_cycle;Signal;HPM_P1;HPM_P2
2021/08/01 00:00:11;;;;;;;1.77;1.65;;;;;;;19.07;59.72;100098.88;5131166;27;20382;-54
2021/08/01 00:02:41;;;;;;;5.43;1.95;;;;;;;19.06;59.84;100099.88;5113419;27;20035;-54
2021/08/01 00:05:09;;;;;;;2.17;1.50;;;;;;;19.07;59.65;100101.53;5131457;27;20034;-54
2021/08/01 00:07:35;;;;;;;5.25;1.75;;;;;;;19.05;59.75;100098.25;5138835;27;20038;-54
2021/08/01 00:10:03;;;;;;;3.90;2.00;;;;;;;19.04;59.73;100101.97;5150438;27;20460;-54
2021/08/01 00:12:29;;;;;;;4.82;1.73;;;;;;;19.05;59.58;100108.13;5132040;27;20018;-54
2021/08/01 00:14:55;;;;;;;1.80;1.70;;;;;;;19.04;59.63;100107.31;5150357;27;20370;-56
2021/08/01 00:17:22;;;;;;;1.88;1.48;;;;;;;19.05;59.66;100110.81;5151087;27;20031;-54
2021/08/01 00:19:48;;;;;;;2.60;1.88;;;;;;;19.04;59.62;100111.84;5140139;27;20047;-54
2021/08/01 00:22:13;;;;;;;2.85;1.52;;;;;;;19.03;59.64;100116.38;5131115;27;20446;-54
2021/08/01 00:24:39;;;;;;;3.50;1.70;;;;;;;19.03;59.75;100112.88;5135201;27;20046;-56
2021/08/01 00:27:05;;;;;;;3.45;1.60;;;;;;;19.03;59.48;100118.25;5130369;27;20047;-54
2021/08/01 00:29:31;;;;;;;5.22;2.25;;;;;;;19.02;59.69;100114.72;5130875;27;20035;-54
2021/08/01 00:32:01;;;;;;;2.05;1.42;;;;;;;19.02;59.69;100105.88;5130761;27;20485;-54
2021/08/01 00:34:27;;;;;;;3.40;1.55;;;;;;;19.02;59.54;100098.66;5131026;27;20042;-54
2021/08/01 00:36:53;;;;;;;3.08;1.95;;;;;;;19.02;59.42;100111.22;5130619;27;20028;-54
2021/08/01 00:39:19;;;;;;;3.10;1.73;;;;;;;19.01;59.37;100109.59;5112422;27;20126;-53
2021/08/01 00:41:46;;;;;;;2.30;1.70;;;;;;;19.01;59.35;100106.91;5139514;27;20114;-54
2021/08/01 00:44:11;;;;;;;5.10;1.70;;;;;;;19.00;59.40;100105.28;5131949;27;20365;-54
2021/08/01 00:46:40;;;;;;;2.40;1.55;;;;;;;18.99;59.27;100106.28;5129952;28;20041;-54
2021/08/01 00:49:05;;;;;;;3.53;1.60;;;;;;;18.99;59.23;100100.94;5131290;27;20039;-53
2021/08/01 00:51:32;;;;;;;4.30;2.10;;;;;;;18.99;59.22;100098.25;5148991;27;20030;-54
2021/08/01 00:54:02;;;;;;;5.20;2.10;;;;;;;18.99;59.07;100106.28;5155731;27;20027;-54
2021/08/01 00:56:31;;;;;;;2.83;1.80;;;;;;;18.98;59.01;100092.09;5137245;27;20023;-54
2021/08/01 00:58:58;;;;;;;1.77;1.48;;;;;;;18.96;59.02;100097.66;5134108;27;20813;-53
2021/08/01 01:01:33;;;;;;;3.80;1.70;;;;;;;18.97;59.04;100103.81;5136657;27;20451;-55
2021/08/01 01:04:27;;;;;;;2.15;1.50;;;;;;;18.95;58.84;100101.34;5155604;27;20037;-54
2021/08/01 01:07:03;;;;;;;3.15;1.65;;;;;;;18.96;58.78;100107.53;5142528;27;20126;-54
2021/08/01 01:09:41;;;;;;;2.83;1.88;;;;;;;18.95;58.75;100100.53;5135118;27;20038;-54
2021/08/01 01:12:32;;;;;;;3.72;1.70;;;;;;;18.94;58.91;100099.72;5132378;27;20034;-54
2021/08/01 01:15:02;;;;;;;3.13;1.77;;;;;;;18.94;58.63;100096.19;5136040;27;20038;-53
2021/08/01 01:17:33;;;;;;;2.20;1.42;;;;;;;18.94;58.66;100098.88;5119929;27;20130;-53
2021/08/01 01:20:23;;;;;;;4.13;1.80;;;;;;;18.93;58.66;100099.91;5155417;27;20030;-53
2021/08/01 01:23:15;;;;;;;2.88;1.30;;;;;;;18.92;58.59;100093.72;5155634;27;20045;-53
2021/08/01 01:26:18;;;;;;;3.35;1.63;;;;;;;18.92;58.70;100095.59;5154987;27;20415;-54
2021/08/01 01:28:47;;;;;;;6.53;1.90;;;;;;;18.91;58.68;100099.28;5155166;27;20389;-54
2021/08/01 01:31:24;;;;;;;2.05;1.33;;;;;;;18.91;58.67;100093.94;5134711;27;20114;-53
2021/08/01 01:34:06;;;;;;;6.13;2.03;;;;;;;18.90;58.76;100095.81;5153082;27;20362;-54
2021/08/01 01:36:34;;;;;;;3.55;1.98;;;;;;;18.90;58.51;100095.81;5155149;27;20114;-54
2021/08/01 01:39:03;;;;;;;2.97;1.67;;;;;;;18.88;58.45;100084.47;5155307;27;20401;-54
2021/08/01 01:41:49;;;;;;;3.72;1.80;;;;;;;18.88;58.49;100084.47;5154977;27;20187;-54
2021/08/01 01:44:20;;;;;;;5.13;2.45;;;;;;;18.88;58.38;100095.19;5136070;27;20030;-54
2021/08/01 01:46:46;;;;;;;3.22;1.92;;;;;;;18.88;58.39;100097.03;5134493;27;20500;-54
2021/08/01 01:49:13;;;;;;;3.78;1.70;;;;;;;18.87;58.30;100098.91;5117331;27;20047;-54
2021/08/01 01:51:46;;;;;;;4.30;2.03;;;;;;;18.86;58.16;100094.56;5121390;27;20050;-55
2021/08/01 01:54:13;;;;;;;3.78;1.63;;;;;;;18.87;58.45;100098.06;5154741;27;20449;-54
2021/08/01 01:56:40;;;;;;;4.65;1.58;;;;;;;18.87;58.31;100100.75;5136182;27;20034;-54
2021/08/01 01:59:07;;;;;;;2.05;1.30;;;;;;;18.85;58.35;100092.94;5134998;27;20031;-54
2021/08/01 02:01:35;;;;;;;4.95;1.95;;;;;;;18.85;58.30;100090.25;5154389;27;20031;-54
2021/08/01 02:04:02;;;;;;;3.88;1.70;;;;;;;18.84;58.36;100094.78;5147682;27;20508;-54
2021/08/01 02:06:47;;;;;;;6.40;2.03;;;;;;;18.84;58.37;100096.66;5134131;27;20485;-55
2021/08/01 02:09:50;;;;;;;3.05;1.60;;;;;;;18.83;58.37;100092.31;5135002;27;20450;-54
2021/08/01 02:12:52;;;;;;;6.32;1.65;;;;;;;18.81;58.28;100097.88;5154321;27;20034;-56
2021/08/01 02:15:35;;;;;;;5.20;1.60;;;;;;;18.81;58.02;100100.53;5135906;27;20039;-54
2021/08/01 02:18:34;;;;;;;3.72;1.70;;;;;;;18.80;58.06;100104.25;5140248;27;20091;-54
2021/08/01 02:21:02;;;;;;;2.95;1.77;;;;;;;18.80;57.81;100098.91;5135690;27;20104;-54
2021/08/01 02:23:35;;;;;;;5.10;1.92;;;;;;;18.80;57.91;100092.72;5118386;27;20038;-54
2021/08/01 02:26:04;;;;;;;4.10;1.70;;;;;;;18.79;57.79;100099.91;5135641;27;20396;-54
2021/08/01 02:28:33;;;;;;;3.10;1.55;;;;;;;18.80;57.56;100103.44;5135594;27;20535;-54
2021/08/01 02:31:01;;;;;;;2.85;1.40;;;;;;;18.78;57.51;100097.44;5154252;27;20117;-54
2021/08/01 02:33:29;;;;;;;4.97;1.77;;;;;;;18.77;57.46;100096.66;5135516;27;20038;-54
2021/08/01 02:36:05;;;;;;;3.58;1.70;;;;;;;18.76;57.36;100094.97;5135366;27;20079;-54
2021/08/01 02:38:36;;;;;;;5.00;1.77;;;;;;;18.76;57.11;100091.50;5135349;27;20039;-54
2021/08/01 02:41:06;;;;;;;5.35;1.70;;;;;;;18.75;57.00;100096.03;5135569;27;20392;-54
2021/08/01 02:43:33;;;;;;;3.55;1.65;;;;;;;18.74;57.09;100086.34;5135435;27;20156;-55
2021/08/01 02:46:03;;;;;;;3.67;1.40;;;;;;;18.74;56.87;100088.19;5153606;27;20103;-54
2021/08/01 02:48:32;;;;;;;3.85;1.55;;;;;;;18.72;56.88;100091.91;5135131;27;20078;-54
2021/08/01 02:51:04;;;;;;;2.97;1.50;;;;;;;18.73;56.84;100090.03;5135510;27;20035;-55
2021/08/01 02:53:45;;;;;;;6.78;1.35;;;;;;;18.72;56.66;100088.41;5135295;27;20034;-54
2021/08/01 02:56:18;;;;;;;4.32;1.52;;;;;;;18.71;56.80;100094.81;5153375;27;20117;-54
2021/08/01 02:58:45;;;;;;;4.93;1.48;;;;;;;18.71;56.58;100098.28;5135156;27;20389;-54
2021/08/01 03:01:12;;;;;;;3.08;1.00;;;;;;;18.70;56.67;100096.66;5117905;27;20058;-54
2021/08/01 03:03:40;;;;;;;4.13;1.70;;;;;;;18.70;56.52;100101.16;5153336;27;20031;-54
2021/08/01 03:06:07;;;;;;;4.68;1.55;;;;;;;18.69;56.37;100096.84;5134839;27;20079;-54
2021/08/01 03:08:33;;;;;;;3.50;1.70;;;;;;;18.69;56.50;100092.34;5153231;27;20083;-54
2021/08/01 03:10:59;;;;;;;6.30;1.55;;;;;;;18.68;56.35;100087.19;5134870;27;20038;-54
2021/08/01 03:13:25;;;;;;;3.90;1.63;;;;;;;18.67;56.26;100094.38;5152792;27;20027;-54
2021/08/01 03:15:52;;;;;;;4.78;1.70;;;;;;;18.67;56.47;100097.06;5153199;27;20027;-55
2021/08/01 03:18:19;;;;;;;4.25;1.98;;;;;;;18.66;56.45;100098.09;5153733;27;20497;-54
2021/08/01 03:20:45;;;;;;;4.05;1.65;;;;;;;18.65;56.16;100095.63;5134579;27;20027;-55
2021/08/01 03:23:23;;;;;;;6.95;1.48;;;;;;;18.65;56.20;100090.28;5153139;27;20489;-54
2021/08/01 03:26:21;;;;;;;3.33;1.65;;;;;;;18.64;56.12;100097.47;5106760;27;20053;-54
2021/08/01 03:28:47;;;;;;;6.57;1.40;;;;;;;18.63;56.14;100098.53;5134628;27;20110;-55
2021/08/01 03:31:13;;;;;;;5.88;1.50;;;;;;;18.63;56.15;100092.34;5152930;27;20103;-54
2021/08/01 03:33:45;;;;;;;4.60;1.40;;;;;;;18.62;56.37;100088.81;5134581;27;20578;-54
2021/08/01 03:36:11;;;;;;;4.82;1.48;;;;;;;18.62;56.14;100091.50;5152929;27;20079;-54
2021/08/01 03:38:52;;;;;;;9.18;1.40;;;;;;;18.61;56.19;100100.56;5152936;27;20511;-54
2021/08/01 03:41:35;;;;;;;5.47;1.40;;;;;;;18.60;56.39;100096.25;5134379;27;20041;-54
2021/08/01 03:44:02;;;;;;;5.30;1.50;;;;;;;18.59;56.13;100098.09;5117271;27;20125;-54
2021/08/01 03:46:28;;;;;;;3.67;1.35;;;;;;;18.59;56.16;100099.94;5152783;27;20116;-54
2021/08/01 03:48:53;;;;;;;3.53;1.30;;;;;;;18.59;56.20;100107.97;5152704;27;20038;-54
2021/08/01 03:51:19;;;;;;;4.18;1.50;;;;;;;18.58;56.18;100109.00;5152772;27;20048;-54
2021/08/01 03:53:45;;;;;;;5.13;1.77;;;;;;;18.57;56.04;100107.38;5152833;27;20080;-54
2021/08/01 03:56:10;;;;;;;2.47;1.20;;;;;;;18.57;56.07;100099.34;5152688;27;20396;-54
2021/08/01 03:58:36;;;;;;;3.72;1.80;;;;;;;18.56;55.95;100114.56;5134209;27;20038;-54
2021/08/01 04:01:02;;;;;;;5.38;2.22;;;;;;;18.56;55.92;100119.91;5152786;27;20035;-54
2021/08/01 04:03:27;;;;;;;5.20;1.50;;;;;;;18.55;55.75;100115.59;5117017;27;20030;-54
2021/08/01 04:05:54;;;;;;;7.18;1.70;;;;;;;18.54;55.88;100121.97;5152602;27;20401;-56
2021/08/01 04:08:20;;;;;;;4.32;1.77;;;;;;;18.54;55.91;100119.28;5152782;27;20087;-54
2021/08/01 04:10:45;;;;;;;3.65;1.30;;;;;;;18.54;55.79;100118.50;5152638;27;20533;-54
2021/08/01 04:13:11;;;;;;;5.63;1.55;;;;;;;18.53;55.79;100120.34;5152664;27;20041;-54
2021/08/01 04:15:37;;;;;;;3.25;1.40;;;;;;;18.52;55.61;100125.91;5152597;27;20091;-54
2021/08/01 04:18:03;;;;;;;5.70;1.52;;;;;;;18.52;55.53;100131.25;5153298;27;20049;-54
2021/08/01 04:20:30;;;;;;;3.90;1.50;;;;;;;18.52;55.56;100133.91;5152704;27;20043;-54
2021/08/01 04:22:56;;;;;;;3.40;1.35;;;;;;;18.52;55.43;100139.28;5152625;27;20102;-54
2021/08/01 04:25:22;;;;;;;4.30;1.60;;;;;;;18.51;55.63;100153.66;5152567;27;20070;-53
2021/08/01 04:27:48;;;;;;;4.03;1.80;;;;;;;18.50;55.37;100150.19;5156215;27;20184;-54
2021/08/01 04:30:14;;;;;;;4.22;1.30;;;;;;;18.49;56.01;100156.53;5156290;27;20042;-55
2021/08/01 04:32:40;;;;;;;3.83;1.30;;;;;;;18.49;55.46;100153.88;5156291;27;20059;-54
2021/08/01 04:35:06;;;;;;;3.92;1.55;;;;;;;18.48;55.54;100154.91;5156329;27;20106;-54
2021/08/01 04:37:32;;;;;;;3.45;1.33;;;;;;;18.48;55.52;100157.59;5156146;27;20516;-54
2021/08/01 04:39:58;;;;;;;4.07;1.42;;;;;;;18.47;55.80;100158.63;5137615;27;20031;-54
2021/08/01 04:42:24;;;;;;;3.95;1.27;;;;;;;18.46;55.46;100152.44;5137441;27;20042;-54
2021/08/01 04:44:49;;;;;;;2.60;1.42;;;;;;;18.45;55.26;100158.00;5156262;27;20034;-54
2021/08/01 04:47:15;;;;;;;3.05;1.15;;;;;;;18.45;55.48;100163.34;5155943;27;20030;-54
2021/08/01 04:49:42;;;;;;;4.13;1.42;;;;;;;18.45;55.69;100163.34;5155977;27;20030;-54
2021/08/01 04:52:14;;;;;;;3.22;1.40;;;;;;;18.44;55.22;100167.84;5156021;27;20030;-54
2021/08/01 04:54:39;;;;;;;2.97;1.52;;;;;;;18.44;55.25;100175.09;5156070;27;20035;-54
2021/08/01 04:57:05;;;;;;;3.60;1.02;;;;;;;18.43;55.21;100168.06;5155789;27;20442;-54
2021/08/01 04:59:37;;;;;;;2.88;1.35;;;;;;;18.42;55.21;100171.78;5156080;27;20031;-55
2021/08/01 05:02:03;;;;;;;2.10;1.23;;;;;;;18.41;55.33;100176.28;5155745;27;20400;-54
2021/08/01 05:04:29;;;;;;;5.65;1.83;;;;;;;18.41;55.20;100178.16;5155729;27;20034;-54
2021/08/01 05:06:55;;;;;;;4.18;1.50;;;;;;;18.41;55.17;100178.16;5155518;27;20116;-54
2021/08/01 05:09:21;;;;;;;2.45;1.15;;;;;;;18.40;55.50;100182.69;5155437;27;20043;-54
2021/08/01 05:11:46;;;;;;;4.40;1.10;;;;;;;18.40;55.04;100190.72;5155542;27;20085;-55
2021/08/01 05:14:12;;;;;;;2.25;1.13;;;;;;;18.40;56.09;100189.88;5137028;27;20083;-55
2021/08/01 05:16:38;;;;;;;2.65;1.27;;;;;;;18.40;55.60;100190.72;5155397;27;20027;-54
2021/08/01 05:19:03;;;;;;;6.85;1.42;;;;;;;18.40;55.30;100187.19;5155883;27;20031;-55
2021/08/01 05:21:30;;;;;;;4.05;1.40;;;;;;;18.37;55.35;100196.47;5155315;27;20038;-54
2021/08/01 05:23:56;;;;;;;3.83;1.48;;;;;;;18.38;55.26;100189.28;5155305;27;20053;-54
2021/08/01 05:26:21;;;;;;;3.42;1.25;;;;;;;18.36;55.08;100194.84;5155320;27;20042;-54
2021/08/01 05:28:47;;;;;;;4.30;1.35;;;;;;;18.37;55.31;100198.31;5155187;27;20439;-54
2021/08/01 05:31:13;;;;;;;3.67;1.77;;;;;;;18.37;55.27;100198.31;5136571;27;20039;-54
2021/08/01 05:33:39;;;;;;;5.13;1.30;;;;;;;18.36;55.21;100210.88;5136881;27;20023;-54
2021/08/01 05:36:08;;;;;;;3.17;1.10;;;;;;;18.35;55.16;100211.88;5154777;27;20504;-54
2021/08/01 05:38:35;;;;;;;6.22;1.27;;;;;;;18.34;55.84;100213.75;5154826;27;20552;-54
2021/08/01 05:41:01;;;;;;;4.90;1.50;;;;;;;18.34;55.23;100219.13;5136540;27;20485;-54
2021/08/01 05:43:27;;;;;;;4.78;1.42;;;;;;;18.34;55.21;100215.59;5154946;27;20124;-55
2021/08/01 05:45:52;;;;;;;3.70;1.52;;;;;;;18.33;55.89;100220.13;5154819;27;20061;-54
2021/08/01 05:48:18;;;;;;;2.92;1.20;;;;;;;18.32;54.99;100218.47;5154787;27;20042;-54
2021/08/01 05:50:44;;;;;;;4.28;1.30;;;;;;;18.32;55.08;100221.16;5154984;27;20438;-55
2021/08/01 05:53:09;;;;;;;4.78;1.60;;;;;;;18.32;55.39;100214.97;5154772;27;20054;-54
2021/08/01 05:55:35;;;;;;;1.95;1.42;;;;;;;18.32;55.25;100217.66;5154616;27;20043;-54
2021/08/01 05:58:01;;;;;;;3.38;1.27;;;;;;;18.30;54.65;100214.38;5154659;27;20031;-54
2021/08/01 06:00:29;;;;;;;3.63;1.38;;;;;;;18.31;54.73;100219.50;5154805;27;20098;-54
2021/08/01 06:02:55;;;;;;;2.55;1.40;;;;;;;18.28;54.54;100221.75;5154546;27;20038;-53
2021/08/01 06:05:21;;;;;;;3.28;1.40;;;;;;;18.27;54.44;100215.56;5154801;27;20031;-54
2021/08/01 06:07:46;;;;;;;2.13;1.50;;;;;;;18.27;54.44;100228.97;5132399;27;20528;-54
2021/08/01 06:10:12;;;;;;;2.95;1.20;;;;;;;18.27;54.37;100217.44;5133724;27;20481;-54
2021/08/01 06:12:38;;;;;;;2.72;1.42;;;;;;;18.26;54.20;100227.31;5133785;27;20385;-54
2021/08/01 06:15:04;;;;;;;2.17;1.30;;;;;;;18.25;54.27;100232.88;5133919;27;20033;-54
2021/08/01 06:17:30;;;;;;;4.15;1.75;;;;;;;18.25;54.19;100224.84;5133581;27;20047;-54
2021/08/01 06:19:56;;;;;;;3.35;1.58;;;;;;;18.23;53.96;100228.53;5133672;27;20050;-54
2021/08/01 06:22:26;;;;;;;4.00;1.60;;;;;;;18.23;53.89;100231.19;5133343;27;20073;-54
2021/08/01 06:24:52;;;;;;;2.92;1.50;;;;;;;18.23;54.02;100225.03;5133440;27;20088;-56
2021/08/01 06:27:18;;;;;;;3.20;1.75;;;;;;;18.23;54.08;100223.16;5133102;27;20047;-54
2021/08/01 06:29:44;;;;;;;2.10;1.30;;;;;;;18.22;53.88;100221.53;5133424;27;20034;-54
2021/08/01 06:32:10;;;;;;;4.63;1.65;;;;;;;18.21;53.97;100221.72;5131988;27;20035;-54
2021/08/01 06:34:36;;;;;;;2.72;1.42;;;;;;;18.21;54.06;100227.09;5133314;27;20558;-54
2021/08/01 06:37:02;;;;;;;2.50;1.40;;;;;;;18.20;53.84;100222.78;5143933;27;20027;-56
2021/08/01 06:39:28;;;;;;;4.25;1.80;;;;;;;18.20;54.08;100225.44;5153765;27;20027;-54
2021/08/01 06:41:53;;;;;;;2.38;1.42;;;;;;;18.19;53.92;100227.28;5135339;27;20034;-54
2021/08/01 06:44:19;;;;;;;3.92;1.40;;;;;;;18.18;54.28;100231.00;5153828;27;20323;-54
2021/08/01 06:46:45;;;;;;;3.15;1.50;;;;;;;18.19;54.17;100229.97;5154123;27;20023;-54
2021/08/01 06:49:10;;;;;;;4.07;2.03;;;;;;;18.19;54.32;100237.97;5152748;27;20039;-54
2021/08/01 06:51:36;;;;;;;3.47;1.40;;;;;;;18.18;54.30;100228.31;5153893;27;20038;-54
2021/08/01 06:54:02;;;;;;;2.78;1.90;;;;;;;18.18;54.54;100236.34;5153546;27;20035;-54
2021/08/01 06:56:29;;;;;;;2.75;1.38;;;;;;;18.18;54.07;100231.00;5153554;27;20027;-54
2021/08/01 06:58:55;;;;;;;3.30;1.55;;;;;;;18.18;54.29;100231.00;5133980;27;20090;-55
2021/08/01 07:01:20;;;;;;;2.58;1.40;;;;;;;18.17;54.02;100226.66;5153233;27;20035;-53
2021/08/01 07:03:46;;;;;;;2.88;1.70;;;;;;;18.17;54.24;100232.00;5153327;27;20037;-55
2021/08/01 07:06:12;;;;;;;4.55;2.08;;;;;;;18.17;54.33;100233.88;5153314;27;20083;-54
2021/08/01 07:08:38;;;;;;;2.40;1.50;;;;;;;18.16;54.04;100227.69;5153132;27;20087;-54
2021/08/01 07:11:04;;;;;;;3.20;1.70;;;;;;;18.16;54.15;100232.19;5153215;27;20489;-54
2021/08/01 07:13:30;;;;;;;5.13;1.83;;;;;;;18.16;54.15;100230.38;5153325;27;20065;-53
2021/08/01 07:16:03;;;;;;;3.75;1.80;;;;;;;18.15;54.08;100231.41;5153003;27;20050;-53
2021/08/01 07:18:29;;;;;;;2.08;1.63;;;;;;;18.15;53.90;100228.72;5153704;27;20453;-54
2021/08/01 07:20:56;;;;;;;4.50;2.03;;;;;;;18.15;53.86;100227.88;5153069;27;20046;-54
2021/08/01 07:23:21;;;;;;;3.97;1.83;;;;;;;18.15;53.79;100234.06;5153172;27;20030;-54
2021/08/01 07:25:47;;;;;;;3.55;1.48;;;;;;;18.15;53.81;100241.25;5152486;27;20031;-54
2021/08/01 07:28:13;;;;;;;3.60;1.58;;;;;;;18.14;53.67;100237.75;5151721;27;20035;-54
2021/08/01 07:30:38;;;;;;;3.13;1.70;;;;;;;18.14;53.33;100243.09;5151256;27;20493;-54
2021/08/01 07:33:04;;;;;;;3.58;1.50;;;;;;;18.13;53.52;100236.09;5152334;27;20370;-54
2021/08/01 07:35:30;;;;;;;2.55;1.70;;;;;;;18.14;53.75;100245.78;5134301;27;20438;-54
2021/08/01 07:37:55;;;;;;;3.40;1.52;;;;;;;18.13;53.90;100251.31;5153072;27;20042;-54
2021/08/01 07:40:21;;;;;;;2.60;1.50;;;;;;;18.13;53.81;100249.47;5152990;27;20519;-54
2021/08/01 07:42:47;;;;;;;4.20;1.50;;;;;;;18.12;53.32;100252.34;5152744;27;20050;-55
2021/08/01 07:45:24;;;;;;;2.70;1.33;;;;;;;18.12;53.25;100252.34;5134257;27;20030;-54
2021/08/01 07:47:51;;;;;;;6.15;1.45;;;;;;;18.12;53.06;100255.03;5151551;27;20118;-53
2021/08/01 07:50:17;;;;;;;3.22;1.88;;;;;;;18.10;52.83;100250.69;5149634;27;20045;-55
2021/08/01 07:52:43;;;;;;;2.15;1.42;;;;;;;18.09;52.62;100253.56;5112168;27;20027;-53
2021/08/01 07:55:09;;;;;;;3.63;1.77;;;;;;;18.08;52.34;100260.75;5151996;27;20083;-55
2021/08/01 07:57:35;;;;;;;5.00;1.52;;;;;;;18.10;52.42;100263.22;5147969;27;20133;-53
2021/08/01 08:00:03;;;;;;;4.03;1.52;;;;;;;18.08;52.55;100258.06;5147384;27;20556;-53
2021/08/01 08:02:42;;;;;;;3.80;1.30;;;;;;;18.09;52.25;100253.56;5151026;27;20087;-54
2021/08/01 08:05:08;;;;;;;3.72;1.23;;;;;;;18.10;52.28;100263.22;5156247;27;20022;-54
2021/08/01 08:07:34;;;;;;;5.07;1.50;;;;;;;18.07;51.97;100269.81;5155329;27;20030;-54
2021/08/01 08:09:59;;;;;;;4.22;1.45;;;;;;;18.07;51.81;100267.13;5156459;27;20027;-55
2021/08/01 08:12:25;;;;;;;3.50;1.70;;;;;;;18.08;51.69;100278.63;5155268;27;20027;-55
2021/08/01 08:14:51;;;;;;;4.72;1.48;;;;;;;18.05;50.24;100284.38;5156959;27;20035;-54
2021/08/01 08:17:17;;;;;;;9.05;1.45;;;;;;;18.01;49.23;100275.94;5156398;27;20103;-55
2021/08/01 08:19:43;;;;;;;6.60;1.67;;;;;;;18.00;48.59;100273.47;5157221;27;20046;-53
2021/08/01 08:22:10;;;;;;;4.50;1.25;;;;;;;17.97;48.18;100280.03;5156757;27;20110;-53
2021/08/01 08:24:36;;;;;;;5.95;1.90;;;;;;;17.95;48.21;100271.38;5154584;27;20079;-51
2021/08/01 08:27:03;;;;;;;7.20;1.55;;;;;;;17.94;48.43;100283.09;5153330;27;20034;-51
2021/08/01 08:29:29;;;;;;;2.38;1.13;;;;;;;17.92;48.73;100269.09;5156278;27;20027;-51
2021/08/01 08:31:55;;;;;;;2.60;1.20;;;;;;;17.92;48.76;100275.28;5154887;27;20034;-51
2021/08/01 08:34:23;;;;;;;4.07;1.08;;;;;;;17.91;47.94;100280.81;5155473;27;20030;-53
2021/08/01 08:36:51;;;;;;;4.50;1.05;;;;;;;17.91;47.95;100278.16;5136341;27;20035;-52
2021/08/01 08:39:23;;;;;;;1.98;0.80;;;;;;;17.89;47.85;100273.00;5155363;27;20045;-55
2021/08/01 08:41:49;;;;;;;4.90;1.05;;;;;;;17.92;48.72;100275.28;5135652;27;20062;-54
2021/08/01 08:44:16;;;;;;;10.68;0.88;;;;;;;17.95;49.45;100274.03;5136955;27;20075;-54
2021/08/01 08:46:42;;;;;;;7.78;1.30;;;;;;;17.96;49.56;100278.38;5155280;27;20031;-53
2021/08/01 08:49:12;;;;;;;4.32;1.00;;;;;;;17.96;49.45;100284.53;5135967;27;20041;-53
2021/08/01 08:51:40;;;;;;;2.45;0.80;;;;;;;17.97;49.52;100280.03;5153443;27;20066;-54
2021/08/01 08:54:13;;;;;;;2.65;0.98;;;;;;;17.97;49.87;100282.69;5155098;27;20041;-58
2021/08/01 08:56:39;;;;;;;5.63;1.25;;;;;;;17.98;49.95;100279.81;5152943;27;20062;-57
2021/08/01 08:59:06;;;;;;;6.10;1.00;;;;;;;17.99;50.02;100280.66;5155215;27;20025;-57
2021/08/01 09:01:33;;;;;;;6.03;0.98;;;;;;;17.99;50.24;100278.00;5155157;27;20031;-58
2021/08/01 09:03:58;;;;;;;3.95;1.33;;;;;;;18.00;50.45;100284.97;5154573;27;20449;-57
2021/08/01 09:06:24;;;;;;;2.63;0.90;;;;;;;18.01;50.50;100277.78;5154781;27;20039;-58
2021/08/01 09:08:50;;;;;;;4.75;1.70;;;;;;;18.02;50.79;100282.09;5154574;27;20046;-56
2021/08/01 09:11:16;;;;;;;6.50;1.67;;;;;;;18.04;50.71;100285.41;5153860;27;20035;-58
2021/08/01 09:13:52;;;;;;;5.30;1.00;;;;;;;18.06;50.75;100286.06;5153709;27;20080;-57
2021/08/01 09:16:20;;;;;;;8.10;1.70;;;;;;;18.06;50.49;100283.38;5152628;27;20066;-57
2021/08/01 09:18:47;;;;;;;3.47;1.50;;;;;;;18.07;50.71;100287.69;5154937;27;20035;-57
2021/08/01 09:21:33;;;;;;;4.55;0.90;;;;;;;18.09;50.75;100293.69;5154245;27;20034;-58
2021/08/01 09:23:59;;;;;;;2.30;1.10;;;;;;;18.09;50.79;100296.34;5152613;27;20027;-57
2021/08/01 09:26:41;;;;;;;5.22;1.17;;;;;;;18.11;50.87;100294.28;5154380;27;20034;-58
2021/08/01 09:29:06;;;;;;;3.20;1.00;;;;;;;18.12;50.60;100292.47;5134965;27;20027;-59
2021/08/01 09:31:32;;;;;;;4.22;1.42;;;;;;;18.12;50.96;100293.31;5152927;27;20095;-58
2021/08/01 09:33:58;;;;;;;8.18;1.30;;;;;;;18.15;51.22;100295.59;5153877;27;20030;-59
2021/08/01 09:36:25;;;;;;;3.13;1.27;;;;;;;18.18;51.28;100294.34;5136364;27;20501;-58
2021/08/01 09:38:55;;;;;;;3.85;1.17;;;;;;;18.20;51.36;100311.03;5154969;27;20038;-58
2021/08/01 09:41:27;;;;;;;3.22;1.10;;;;;;;18.20;51.41;100306.50;5136508;27;20106;-58
2021/08/01 09:43:56;;;;;;;2.30;1.00;;;;;;;18.21;51.29;100312.69;5154686;27;20086;-57
2021/08/01 09:46:37;;;;;;;4.45;1.20;;;;;;;18.21;51.09;100302.81;5154611;27;20095;-58
2021/08/01 09:49:13;;;;;;;5.95;1.05;;;;;;;18.21;50.91;100304.66;5154502;27;20042;-56
2021/08/01 09:51:38;;;;;;;1.98;1.27;;;;;;;18.21;50.62;100301.97;5154516;27;20031;-58
2021/08/01 09:54:05;;;;;;;5.72;1.25;;;;;;;18.22;50.63;100306.31;5153804;27;20114;-58
2021/08/01 09:56:31;;;;;;;5.43;1.77;;;;;;;18.26;50.54;100317.44;5154179;27;20038;-59
2021/08/01 09:58:57;;;;;;;8.15;1.20;;;;;;;18.25;50.42;100313.13;5154509;27;20027;-57
2021/08/01 10:01:23;;;;;;;6.82;1.00;;;;;;;18.25;50.59;100313.13;5154420;27;20102;-56
2021/08/01 10:03:49;;;;;;;10.23;1.58;;;;;;;18.25;50.29;100318.47;5154815;27;20112;-56
2021/08/01 10:06:21;;;;;;;3.85;1.15;;;;;;;18.24;50.22;100323.00;5152194;27;20029;-58
2021/08/01 10:08:48;;;;;;;4.55;1.98;;;;;;;18.22;50.19;100317.84;5153098;27;20502;-58
2021/08/01 10:11:19;;;;;;;3.30;1.13;;;;;;;18.22;50.06;100319.66;5154330;27;20063;-59
2021/08/01 10:13:51;;;;;;;3.75;1.13;;;;;;;18.22;50.13;100325.03;5154457;27;20392;-59
2021/08/01 10:16:17;;;;;;;1.63;0.95;;;;;;;18.21;50.16;100326.91;5153896;27;20037;-60
2021/08/01 10:18:45;;;;;;;4.55;1.10;;;;;;;18.22;50.06;100317.84;5152967;27;20031;-59
2021/08/01 10:21:13;;;;;;;4.53;1.20;;;;;;;18.23;50.26;100319.47;5153289;27;20038;-59
2021/08/01 10:23:47;;;;;;;4.88;1.25;;;;;;;18.24;50.37;100323.00;5153758;27;20027;-59
2021/08/01 10:26:15;;;;;;;2.83;1.30;;;;;;;18.27;50.87;100327.13;5153871;27;20044;-57
2021/08/01 10:28:48;;;;;;;3.45;0.98;;;;;;;18.28;50.57;100328.78;5153711;27;20045;-56
2021/08/01 10:31:15;;;;;;;2.67;1.00;;;;;;;18.31;50.49;100329.22;5151029;27;20389;-56
2021/08/01 10:33:49;;;;;;;2.88;0.90;;;;;;;18.31;50.39;100345.25;5135213;27;20065;-56
2021/08/01 10:36:22;;;;;;;8.27;1.20;;;;;;;18.32;50.35;100336.19;5150654;27;20079;-56
2021/08/01 10:38:51;;;;;;;6.47;1.30;;;;;;;18.32;50.46;100335.38;5153365;27;20666;-56
2021/08/01 10:41:20;;;;;;;4.05;0.98;;;;;;;18.31;50.38;100337.25;5150746;27;20035;-56
2021/08/01 10:43:48;;;;;;;3.60;1.33;;;;;;;18.32;50.71;100338.88;5153616;27;20098;-58
2021/08/01 10:46:18;;;;;;;11.40;1.17;;;;;;;18.31;50.80;100341.75;5153596;27;20034;-58
2021/08/01 10:48:45;;;;;;;10.00;1.25;;;;;;;18.31;50.80;100337.25;5153718;27;20073;-58
2021/08/01 10:51:11;;;;;;;6.80;0.82;;;;;;;18.30;50.89;100342.78;5135005;27;20751;-59
2021/08/01 10:53:37;;;;;;;6.50;1.27;;;;;;;18.29;50.76;100344.63;5153602;27;20489;-58
2021/08/01 10:56:06;;;;;;;7.82;1.02;;;;;;;18.29;51.12;100338.44;5153551;27;20038;-58
2021/08/01 10:58:35;;;;;;;11.68;1.30;;;;;;;18.29;51.25;100338.44;5153531;27;20481;-58
2021/08/01 11:01:09;;;;;;;7.63;1.23;;;;;;;18.30;50.96;100337.44;5153308;27;20492;-58
2021/08/01 11:03:42;;;;;;;6.32;1.23;;;;;;;18.28;50.71;100337.63;5153432;27;20036;-58
2021/08/01 11:06:35;;;;;;;13.90;2.05;;;;;;;18.29;51.06;100325.06;5134278;27;20039;-58
2021/08/01 11:09:14;;;;;;;8.40;1.30;;;;;;;18.28;51.19;100342.16;5150839;27;20041;-58
2021/08/01 11:11:44;;;;;;;5.43;1.05;;;;;;;18.27;50.57;100340.50;5150272;27;20036;-58
2021/08/01 11:14:48;;;;;;;2.38;0.73;;;;;;;18.23;50.30;100332.84;5152705;27;20033;-57
2021/08/01 11:17:16;;;;;;;6.32;1.10;;;;;;;18.21;49.95;100336.75;5152127;27;20038;-58
2021/08/01 11:19:43;;;;;;;4.13;0.80;;;;;;;18.20;49.88;100332.44;5150976;27;20582;-58
2021/08/01 11:22:38;;;;;;;3.05;0.70;;;;;;;18.19;50.11;100331.59;5152514;27;20037;-57
2021/08/01 11:25:19;;;;;;;6.68;0.80;;;;;;;18.18;50.13;100327.28;5143189;27;20046;-57
2021/08/01 11:28:10;;;;;;;6.65;1.35;;;;;;;18.18;50.61;100329.97;5150529;27;20493;-57
2021/08/01 11:33:43;;;;;;;10.63;1.10;;;;;;;18.19;50.53;100333.44;5152763;27;20334;-57
2021/08/01 11:36:12;;;;;;;6.95;1.33;;;;;;;18.18;51.06;100332.63;5132050;27;20035;-57